Terminal Aerodrome Forecast
Issued by NWS

Home | Current Version | Previous Version | Text Only | Print | Product List | Glossary On
Versions: 1 2 3 4 5 6 7 8 9 10 11 12 13 14 15 16 17 18 19 20 21 22 23
000
FTUS43 KABR 280302 AAA
TAFPIR
TAF AMD
KPIR 280302Z 2803/2824 04007KT P6SM SCT070
     FM281000 08006KT P6SM VCTS SCT090CB OVC120
     FM281100 08005KT P6SM SCT200
     FM281700 08009KT P6SM BKN200=

USA.gov is the U.S. government's official web portal to all federal, state and local government web resources and services.